Time;durP1;ratioP1;P1;durP2;ratioP2;P2;SDS_P1;SDS_P2;PMS_P1;PMS_P2;Temp;Humidity;BMP_temperature;BMP_pressure;BME280_temperature;BME280_humidity;BME280_pressure;Samples;Min_cycle;Max_cycle;Signal;HPM_P1;HPM_P2
2020/10/14 00:02:22;;;;;;;;;4.00;3.00;;;;;;;;3724763;38;21396;-52
2020/10/14 00:05:06;;;;;;;;;3.25;3.25;;;;;;;;3725249;37;21383;-53
2020/10/14 00:07:37;;;;;;;;;6.00;4.00;;;;;;;;3725454;38;21428;-54
2020/10/14 00:10:08;;;;;;;;;3.25;3.25;;;;;;;;3725354;37;21389;-54
2020/10/14 00:12:34;;;;;;;;;3.00;3.00;;;;;;;;3725430;38;21387;-53
2020/10/14 00:15:00;;;;;;;;;3.00;3.00;;;;;;;;3725464;38;21399;-54
2020/10/14 00:17:26;;;;;;;;;4.00;2.50;;;;;;;;3725578;38;18472;-54
2020/10/14 00:19:52;;;;;;;;;3.75;3.00;;;;;;;;3725391;38;18465;-54
2020/10/14 00:22:18;;;;;;;;;5.00;4.00;;;;;;;;3725449;38;21393;-52
2020/10/14 00:24:45;;;;;;;;;3.25;2.25;;;;;;;;3725429;37;21378;-53
2020/10/14 00:27:11;;;;;;;;;2.50;2.00;;;;;;;;3725489;37;21359;-53
2020/10/14 00:29:40;;;;;;;;;3.00;3.00;;;;;;;;3725471;37;21351;-53
2020/10/14 00:32:06;;;;;;;;;3.50;2.75;;;;;;;;3725473;37;21360;-55
2020/10/14 00:34:33;;;;;;;;;3.75;2.75;;;;;;;;3725525;38;21365;-54
2020/10/14 00:36:59;;;;;;;;;3.50;2.75;;;;;;;;3725510;37;21342;-56
2020/10/14 00:39:28;;;;;;;;;4.50;3.25;;;;;;;;3725451;37;21369;-52
2020/10/14 00:41:57;;;;;;;;;3.00;2.00;;;;;;;;3725397;37;21375;-54
2020/10/14 00:44:24;;;;;;;;;2.00;2.00;;;;;;;;3725422;38;21341;-53
2020/10/14 00:46:50;;;;;;;;;6.75;4.25;;;;;;;;3725533;37;21334;-55
2020/10/14 00:49:16;;;;;;;;;2.75;2.00;;;;;;;;3725498;38;21354;-52
2020/10/14 00:51:42;;;;;;;;;3.25;3.25;;;;;;;;3725479;38;18430;-54
2020/10/14 00:54:09;;;;;;;;;3.50;3.50;;;;;;;;3725503;38;21176;-53
2020/10/14 00:56:35;;;;;;;;;2.75;2.75;;;;;;;;3725606;37;21339;-53
2020/10/14 00:59:01;;;;;;;;;3.50;2.25;;;;;;;;3725501;38;18418;-53
2020/10/14 01:01:27;;;;;;;;;3.00;2.50;;;;;;;;3725307;37;21315;-54
2020/10/14 01:03:54;;;;;;;;;3.50;3.50;;;;;;;;3725478;38;18403;-53
2020/10/14 01:06:20;;;;;;;;;3.00;2.75;;;;;;;;3725396;37;21323;-52
2020/10/14 01:08:48;;;;;;;;;3.25;3.00;;;;;;;;3725516;37;18395;-55
2020/10/14 01:11:14;;;;;;;;;3.50;2.50;;;;;;;;3725398;37;21307;-53
2020/10/14 01:13:40;;;;;;;;;2.00;2.00;;;;;;;;3725363;37;21199;-52
2020/10/14 01:16:06;;;;;;;;;3.00;3.00;;;;;;;;3725465;37;18409;-55
2020/10/14 01:18:32;;;;;;;;;4.50;3.25;;;;;;;;3725505;38;21307;-50
2020/10/14 01:20:59;;;;;;;;;3.00;2.75;;;;;;;;3725585;38;18370;-53
2020/10/14 01:23:26;;;;;;;;;3.00;3.00;;;;;;;;3725208;38;18383;-54
2020/10/14 01:25:52;;;;;;;;;3.00;3.00;;;;;;;;3725396;37;21301;-53
2020/10/14 01:28:19;;;;;;;;;3.75;3.00;;;;;;;;3725435;38;21187;-54
2020/10/14 01:30:45;;;;;;;;;3.00;2.00;;;;;;;;3725803;37;21305;-54
2020/10/14 01:33:12;;;;;;;;;4.00;2.00;;;;;;;;3725667;37;21301;-55
2020/10/14 01:35:38;;;;;;;;;3.00;2.25;;;;;;;;3725477;38;21299;-54
2020/10/14 01:38:06;;;;;;;;;4.00;3.00;;;;;;;;3725521;38;18365;-52
2020/10/14 01:40:32;;;;;;;;;3.50;2.75;;;;;;;;3725396;37;21288;-52
2020/10/14 01:42:58;;;;;;;;;2.00;2.00;;;;;;;;3725385;38;21259;-53
2020/10/14 01:45:32;;;;;;;;;3.00;3.00;;;;;;;;3725466;38;21285;-54
2020/10/14 01:48:00;;;;;;;;;2.50;2.50;;;;;;;;3727776;38;21258;-54
2020/10/14 01:50:28;;;;;;;;;2.50;1.75;;;;;;;;3729974;38;21252;-51
2020/10/14 01:52:54;;;;;;;;;2.25;2.25;;;;;;;;3726258;38;21256;-60
2020/10/14 01:55:21;;;;;;;;;2.00;2.00;;;;;;;;3729297;37;21265;-53
2020/10/14 01:57:48;;;;;;;;;4.75;4.00;;;;;;;;3728908;37;21361;-52
2020/10/14 02:00:33;;;;;;;;;4.00;3.00;;;;;;;;3725385;38;21274;-52
2020/10/14 02:03:01;;;;;;;;;2.50;2.50;;;;;;;;3725462;38;21287;-52
2020/10/14 02:05:27;;;;;;;;;5.75;3.00;;;;;;;;3725578;37;21235;-54
2020/10/14 02:07:53;;;;;;;;;4.25;4.00;;;;;;;;3725666;37;21260;-54
2020/10/14 02:10:20;;;;;;;;;4.25;3.75;;;;;;;;3725559;37;18313;-53
2020/10/14 02:12:47;;;;;;;;;3.25;2.25;;;;;;;;3725317;37;21260;-52
2020/10/14 02:15:13;;;;;;;;;4.50;3.00;;;;;;;;3725475;38;21220;-52
2020/10/14 02:17:40;;;;;;;;;2.00;2.00;;;;;;;;3725546;37;21230;-54
2020/10/14 02:20:07;;;;;;;;;3.00;3.00;;;;;;;;3725441;38;21229;-54
2020/10/14 02:22:33;;;;;;;;;3.50;3.00;;;;;;;;3725453;37;21224;-52
2020/10/14 02:24:59;;;;;;;;;3.25;3.00;;;;;;;;3725458;37;21227;-53
2020/10/14 02:27:25;;;;;;;;;2.25;2.00;;;;;;;;3725679;38;18309;-53
2020/10/14 02:29:52;;;;;;;;;3.00;2.75;;;;;;;;3725435;37;18313;-52
2020/10/14 02:32:18;;;;;;;;;2.00;2.00;;;;;;;;3725348;38;21229;-53
2020/10/14 02:34:44;;;;;;;;;3.25;2.75;;;;;;;;3725170;37;21192;-53
2020/10/14 02:37:15;;;;;;;;;2.75;2.75;;;;;;;;3725425;37;21195;-52
2020/10/14 02:39:46;;;;;;;;;3.75;3.00;;;;;;;;3725423;37;18273;-52
2020/10/14 02:42:16;;;;;;;;;6.00;3.50;;;;;;;;3725315;37;21201;-53
2020/10/14 02:44:42;;;;;;;;;3.25;2.00;;;;;;;;3725526;38;21206;-53
2020/10/14 02:47:08;;;;;;;;;3.00;2.00;;;;;;;;3725376;38;21185;-54
2020/10/14 02:49:34;;;;;;;;;3.25;2.00;;;;;;;;3725495;37;18275;-54
2020/10/14 02:52:00;;;;;;;;;4.75;3.25;;;;;;;;3725371;38;21181;-53
2020/10/14 02:54:27;;;;;;;;;3.00;3.00;;;;;;;;3725566;37;18275;-52
2020/10/14 02:57:15;;;;;;;;;4.50;3.75;;;;;;;;3725373;37;21173;-52
2020/10/14 02:59:44;;;;;;;;;7.00;3.75;;;;;;;;3725587;38;18287;-54
2020/10/14 03:02:49;;;;;;;;;4.00;3.75;;;;;;;;3725463;37;21177;-52
2020/10/14 03:05:23;;;;;;;;;2.75;2.75;;;;;;;;3725654;38;21168;-52
2020/10/14 03:07:51;;;;;;;;;5.00;4.50;;;;;;;;3725571;38;21189;-53
2020/10/14 03:10:31;;;;;;;;;4.75;4.00;;;;;;;;3725451;37;21153;-53
2020/10/14 03:12:58;;;;;;;;;3.25;2.00;;;;;;;;3725500;37;21163;-53
2020/10/14 03:15:24;;;;;;;;;4.75;3.00;;;;;;;;3725235;37;21144;-53
2020/10/14 03:17:50;;;;;;;;;5.50;4.00;;;;;;;;3725482;38;21148;-53
2020/10/14 03:20:21;;;;;;;;;5.75;4.25;;;;;;;;3725450;38;18241;-52
2020/10/14 03:22:48;;;;;;;;;4.50;3.50;;;;;;;;3725471;38;21137;-54
2020/10/14 03:25:15;;;;;;;;;3.75;3.50;;;;;;;;3725364;38;21161;-53
2020/10/14 03:27:41;;;;;;;;;3.00;3.00;;;;;;;;3725412;37;21140;-53
2020/10/14 03:30:12;;;;;;;;;2.25;2.00;;;;;;;;3725464;38;21131;-53
2020/10/14 03:32:38;;;;;;;;;4.50;3.00;;;;;;;;3725541;38;21028;-53
2020/10/14 03:35:04;;;;;;;;;5.00;3.75;;;;;;;;3725386;38;21141;-55
2020/10/14 03:37:31;;;;;;;;;5.50;4.00;;;;;;;;3725403;37;18208;-53
2020/10/14 03:39:57;;;;;;;;;3.00;3.00;;;;;;;;3725424;38;21117;-52
2020/10/14 03:42:23;;;;;;;;;3.25;3.00;;;;;;;;3725441;38;18225;-53
2020/10/14 03:44:50;;;;;;;;;5.50;4.50;;;;;;;;3725429;38;21095;-53
2020/10/14 03:47:23;;;;;;;;;3.75;3.00;;;;;;;;3725279;37;21117;-53
2020/10/14 03:49:50;;;;;;;;;4.00;3.25;;;;;;;;3725555;38;21115;-52
2020/10/14 03:52:18;;;;;;;;;3.75;3.25;;;;;;;;3725515;37;21133;-53
2020/10/14 03:54:44;;;;;;;;;5.75;4.25;;;;;;;;3725536;37;21185;-52
2020/10/14 03:57:11;;;;;;;;;5.25;3.25;;;;;;;;3725640;38;21090;-54
2020/10/14 03:59:37;;;;;;;;;5.00;3.00;;;;;;;;3725665;37;18193;-52
2020/10/14 04:02:13;;;;;;;;;3.00;3.00;;;;;;;;3725429;37;21095;-53
2020/10/14 04:04:40;;;;;;;;;3.75;2.50;;;;;;;;3725481;38;21103;-54
2020/10/14 04:07:14;;;;;;;;;5.50;3.00;;;;;;;;3725174;37;21121;-53
2020/10/14 04:09:42;;;;;;;;;3.75;3.00;;;;;;;;3725445;38;21099;-53
2020/10/14 04:12:10;;;;;;;;;5.25;3.50;;;;;;;;3725413;38;21097;-53
2020/10/14 04:14:37;;;;;;;;;4.50;2.00;;;;;;;;3725262;38;21073;-52
2020/10/14 04:17:04;;;;;;;;;5.00;4.00;;;;;;;;3725395;38;21083;-54
2020/10/14 04:19:30;;;;;;;;;3.25;3.25;;;;;;;;3725321;38;21074;-53
2020/10/14 04:22:05;;;;;;;;;4.00;4.00;;;;;;;;3725534;37;21064;-52
2020/10/14 04:24:31;;;;;;;;;5.75;3.00;;;;;;;;3725421;37;18140;-54
2020/10/14 04:27:00;;;;;;;;;3.50;3.00;;;;;;;;3725609;38;21073;-54
2020/10/14 04:29:31;;;;;;;;;4.00;4.00;;;;;;;;3725706;37;18124;-54
2020/10/14 04:31:57;;;;;;;;;2.25;2.25;;;;;;;;3726005;38;21046;-53
2020/10/14 04:34:23;;;;;;;;;3.50;3.50;;;;;;;;3725699;38;21034;-53
2020/10/14 04:36:50;;;;;;;;;5.00;4.00;;;;;;;;3725918;37;18157;-52
2020/10/14 04:39:19;;;;;;;;;6.25;3.75;;;;;;;;3725559;37;21055;-53
2020/10/14 04:42:14;;;;;;;;;5.00;4.00;;;;;;;;3725533;37;21078;-54
2020/10/14 04:44:58;;;;;;;;;4.50;3.50;;;;;;;;3725579;38;21035;-55
2020/10/14 04:47:26;;;;;;;;;4.25;2.50;;;;;;;;3725545;37;21027;-52
2020/10/14 04:49:54;;;;;;;;;7.50;3.00;;;;;;;;3725453;38;21040;-53
2020/10/14 04:52:20;;;;;;;;;4.75;4.00;;;;;;;;3725663;38;21031;-55
2020/10/14 04:55:00;;;;;;;;;4.00;3.00;;;;;;;;3725425;38;21016;-54
2020/10/14 04:57:29;;;;;;;;;4.75;3.00;;;;;;;;3725616;37;18127;-52
2020/10/14 05:00:01;;;;;;;;;4.25;4.00;;;;;;;;3725440;38;21028;-53
2020/10/14 05:02:28;;;;;;;;;7.50;5.50;;;;;;;;3725595;37;21037;-52
2020/10/14 05:04:54;;;;;;;;;6.75;5.00;;;;;;;;3725477;37;20993;-52
2020/10/14 05:07:27;;;;;;;;;8.00;4.25;;;;;;;;3725420;38;21000;-52
2020/10/14 05:09:53;;;;;;;;;4.25;3.75;;;;;;;;3725477;37;21009;-53
2020/10/14 05:12:28;;;;;;;;;4.50;4.00;;;;;;;;3725362;38;21027;-53
2020/10/14 05:14:55;;;;;;;;;4.00;3.00;;;;;;;;3725375;38;20836;-54
2020/10/14 05:17:22;;;;;;;;;3.25;2.75;;;;;;;;3725495;37;21009;-52
2020/10/14 05:19:58;;;;;;;;;3.25;1.25;;;;;;;;3725361;37;20976;-52
2020/10/14 05:22:30;;;;;;;;;5.00;4.00;;;;;;;;3725497;38;20996;-53
2020/10/14 05:25:07;;;;;;;;;3.50;2.50;;;;;;;;3725558;37;21044;-54
2020/10/14 05:27:33;;;;;;;;;7.00;4.00;;;;;;;;3725473;37;20989;-53
2020/10/14 05:29:59;;;;;;;;;7.50;4.00;;;;;;;;3725562;38;20968;-53
2020/10/14 05:32:28;;;;;;;;;5.25;4.00;;;;;;;;3725511;38;20979;-53
2020/10/14 05:35:05;;;;;;;;;6.00;4.00;;;;;;;;3725327;38;20969;-54
2020/10/14 05:37:31;;;;;;;;;10.50;7.00;;;;;;;;3725620;37;20981;-52
2020/10/14 05:39:58;;;;;;;;;4.50;3.50;;;;;;;;3725525;37;20997;-52
2020/10/14 05:42:24;;;;;;;;;6.25;5.00;;;;;;;;3725684;38;18067;-54
2020/10/14 05:44:52;;;;;;;;;8.00;4.00;;;;;;;;3725598;38;20978;-53
2020/10/14 05:47:19;;;;;;;;;5.00;4.00;;;;;;;;3725540;38;20701;-54
2020/10/14 05:49:53;;;;;;;;;3.75;2.50;;;;;;;;3725650;38;20955;-52
2020/10/14 05:52:20;;;;;;;;;8.00;4.75;;;;;;;;3725600;37;20963;-54
2020/10/14 05:54:49;;;;;;;;;4.00;3.25;;;;;;;;3725563;37;20919;-57
2020/10/14 05:57:15;;;;;;;;;3.75;2.75;;;;;;;;3725470;37;20960;-53
2020/10/14 05:59:41;;;;;;;;;3.00;3.00;;;;;;;;3725317;38;20949;-53
2020/10/14 06:02:09;;;;;;;;;3.25;2.25;;;;;;;;3725357;38;20948;-54
2020/10/14 06:04:35;;;;;;;;;20.25;13.00;;;;;;;;3725596;38;17998;-54
2020/10/14 06:07:07;;;;;;;;;20.50;14.25;;;;;;;;3725305;37;21042;-54
2020/10/14 06:09:34;;;;;;;;;30.00;23.50;;;;;;;;3725005;37;18031;-51
2020/10/14 06:12:03;;;;;;;;;27.50;21.25;;;;;;;;3725292;38;20840;-53
2020/10/14 06:14:34;;;;;;;;;26.00;19.75;;;;;;;;3725334;38;20837;-53
2020/10/14 06:17:03;;;;;;;;;22.25;18.50;;;;;;;;3725287;38;20856;-52
2020/10/14 06:19:30;;;;;;;;;20.25;16.00;;;;;;;;3725239;38;20832;-50
2020/10/14 06:21:59;;;;;;;;;22.25;17.00;;;;;;;;3725348;37;20818;-53
2020/10/14 06:24:30;;;;;;;;;15.25;13.75;;;;;;;;3725405;38;20804;-52
2020/10/14 06:26:58;;;;;;;;;24.50;16.50;;;;;;;;3725454;37;20833;-52
2020/10/14 06:29:26;;;;;;;;;25.25;15.75;;;;;;;;3725398;38;20825;-54
2020/10/14 06:31:53;;;;;;;;;20.00;15.50;;;;;;;;3725567;37;20861;-52
2020/10/14 06:34:36;;;;;;;;;16.00;14.00;;;;;;;;3725578;38;20695;-56
2020/10/14 06:37:03;;;;;;;;;23.00;15.75;;;;;;;;3725521;38;20824;-54
2020/10/14 06:39:30;;;;;;;;;20.75;15.75;;;;;;;;3725389;37;20785;-53
2020/10/14 06:42:00;;;;;;;;;21.00;13.50;;;;;;;;3725596;38;20767;-56
2020/10/14 06:44:27;;;;;;;;;15.00;11.00;;;;;;;;3725628;38;20858;-53
2020/10/14 06:46:57;;;;;;;;;20.25;15.25;;;;;;;;3725506;38;20782;-53
2020/10/14 06:49:24;;;;;;;;;18.75;11.75;;;;;;;;3725536;38;20764;-54
2020/10/14 06:51:50;;;;;;;;;24.75;14.00;;;;;;;;3725760;37;20782;-53
2020/10/14 06:54:16;;;;;;;;;17.50;13.25;;;;;;;;3725670;37;20819;-54
2020/10/14 06:56:43;;;;;;;;;15.25;12.00;;;;;;;;3724958;37;20978;-56
2020/10/14 06:59:09;;;;;;;;;20.75;14.00;;;;;;;;3725285;38;17954;-53
2020/10/14 07:01:35;;;;;;;;;21.50;15.00;;;;;;;;3725650;37;20817;-52
2020/10/14 07:04:01;;;;;;;;;18.50;14.75;;;;;;;;3725540;37;20755;-55
2020/10/14 07:06:28;;;;;;;;;15.50;11.25;;;;;;;;3725187;38;17932;-52
2020/10/14 07:08:54;;;;;;;;;19.25;13.00;;;;;;;;3725688;37;20771;-53
2020/10/14 07:11:20;;;;;;;;;20.75;12.75;;;;;;;;3726051;38;20637;-55
2020/10/14 07:13:47;;;;;;;;;20.25;12.25;;;;;;;;3726264;37;20731;-54
2020/10/14 07:16:13;;;;;;;;;16.75;9.50;;;;;;;;3725807;37;20935;-54
2020/10/14 07:18:40;;;;;;;;;14.50;11.75;;;;;;;;3725645;38;20747;-55
2020/10/14 07:21:06;;;;;;;;;12.50;9.50;;;;;;;;3725338;38;20730;-55
2020/10/14 07:23:36;;;;;;;;;10.00;9.00;;;;;;;;3725634;37;20785;-54
2020/10/14 07:26:02;;;;;;;;;12.50;7.50;;;;;;;;3725582;37;20894;-54
2020/10/14 07:28:29;;;;;;;;;10.00;8.00;;;;;;;;3725541;38;20868;-55
2020/10/14 07:30:55;;;;;;;;;18.25;10.50;;;;;;;;3725592;38;20869;-54
2020/10/14 07:33:21;;;;;;;;;9.00;2.00;;;;;;;;3725502;38;20921;-54
2020/10/14 07:35:48;;;;;;;;;11.00;8.00;;;;;;;;3725660;37;20923;-53
2020/10/14 07:38:15;;;;;;;;;8.25;6.00;;;;;;;;3725616;37;20834;-54
2020/10/14 07:40:42;;;;;;;;;8.25;6.00;;;;;;;;3725524;38;20817;-55
2020/10/14 07:43:08;;;;;;;;;7.75;5.75;;;;;;;;3725615;38;20620;-55
2020/10/14 07:45:35;;;;;;;;;11.00;8.00;;;;;;;;3724536;38;20802;-55
2020/10/14 07:48:04;;;;;;;;;8.25;7.00;;;;;;;;3725182;38;20840;-55
2020/10/14 07:50:30;;;;;;;;;7.50;5.50;;;;;;;;3725485;37;17873;-54
2020/10/14 07:52:56;;;;;;;;;8.25;6.00;;;;;;;;3725517;37;20801;-55
2020/10/14 07:55:22;;;;;;;;;7.75;6.00;;;;;;;;3725442;38;17879;-54
2020/10/14 07:57:49;;;;;;;;;8.25;6.25;;;;;;;;3725539;37;17877;-55
2020/10/14 08:00:49;;;;;;;;;5.75;5.25;;;;;;;;3725290;38;20762;-53
2020/10/14 08:03:17;;;;;;;;;9.50;6.00;;;;;;;;3725317;37;20565;-55
2020/10/14 08:05:43;;;;;;;;;6.00;5.00;;;;;;;;3725417;37;20593;-55
2020/10/14 08:08:10;;;;;;;;;5.50;5.25;;;;;;;;3725217;38;20558;-55
2020/10/14 08:10:36;;;;;;;;;9.00;6.50;;;;;;;;3725405;37;20627;-54
2020/10/14 08:13:10;;;;;;;;;5.00;4.25;;;;;;;;3725380;37;20729;-55
2020/10/14 08:15:38;;;;;;;;;6.75;5.00;;;;;;;;3725368;38;20748;-53
2020/10/14 08:18:19;;;;;;;;;6.00;4.75;;;;;;;;3725353;38;20525;-55
2020/10/14 08:20:45;;;;;;;;;6.00;4.25;;;;;;;;3725393;37;20533;-55
2020/10/14 08:23:11;;;;;;;;;8.00;5.50;;;;;;;;3725454;38;20533;-55
2020/10/14 08:25:36;;;;;;;;;5.00;4.00;;;;;;;;3725534;38;17831;-56
2020/10/14 08:28:04;;;;;;;;;5.00;4.00;;;;;;;;3725576;37;17808;-53
2020/10/14 08:30:37;;;;;;;;;6.00;4.25;;;;;;;;3725470;37;20565;-54
2020/10/14 08:33:05;;;;;;;;;7.00;5.00;;;;;;;;3725262;38;20567;-55
2020/10/14 08:35:31;;;;;;;;;4.50;4.25;;;;;;;;3725129;38;20509;-55
2020/10/14 08:37:57;;;;;;;;;5.00;4.25;;;;;;;;3725401;37;20554;-55
2020/10/14 08:40:25;;;;;;;;;6.25;4.25;;;;;;;;3725541;38;20556;-54
2020/10/14 08:42:53;;;;;;;;;4.00;4.00;;;;;;;;3725546;37;20541;-54
2020/10/14 08:45:21;;;;;;;;;4.25;3.25;;;;;;;;3725371;38;20516;-54
2020/10/14 08:47:47;;;;;;;;;3.75;3.50;;;;;;;;3725244;37;20689;-55
2020/10/14 08:50:33;;;;;;;;;5.25;4.00;;;;;;;;3725303;38;20722;-55
2020/10/14 08:53:00;;;;;;;;;6.00;5.00;;;;;;;;3725414;37;20545;-54
2020/10/14 08:55:28;;;;;;;;;7.00;4.00;;;;;;;;3725402;37;20685;-54
2020/10/14 08:57:56;;;;;;;;;5.25;3.25;;;;;;;;3725362;37;20507;-55
2020/10/14 09:00:27;;;;;;;;;4.75;3.50;;;;;;;;3725321;38;20698;-54
2020/10/14 09:02:53;;;;;;;;;3.00;3.00;;;;;;;;3725359;37;20679;-55
2020/10/14 09:05:43;;;;;;;;;8.50;5.00;;;;;;;;3725326;37;20698;-55
2020/10/14 09:08:25;;;;;;;;;5.25;3.50;;;;;;;;3725407;37;20677;-54
2020/10/14 09:11:09;;;;;;;;;4.00;3.75;;;;;;;;3725369;38;20679;-55
2020/10/14 09:13:55;;;;;;;;;3.25;3.00;;;;;;;;3725489;38;20465;-55
2020/10/14 09:16:22;;;;;;;;;3.75;3.25;;;;;;;;3725411;37;20686;-55
2020/10/14 09:19:08;;;;;;;;;3.75;3.50;;;;;;;;3725400;38;20511;-55
2020/10/14 09:21:54;;;;;;;;;3.50;3.00;;;;;;;;3725558;38;20708;-55
2020/10/14 09:24:20;;;;;;;;;3.75;2.50;;;;;;;;3725485;37;20658;-55
2020/10/14 09:26:47;;;;;;;;;3.50;2.00;;;;;;;;3725522;38;20504;-54
2020/10/14 09:29:15;;;;;;;;;3.75;2.75;;;;;;;;3725128;37;17709;-54
2020/10/14 09:31:49;;;;;;;;;3.25;3.25;;;;;;;;3725473;37;20655;-55
2020/10/14 09:34:16;;;;;;;;;2.75;2.00;;;;;;;;3725408;37;20652;-55
2020/10/14 09:36:41;;;;;;;;;4.25;3.00;;;;;;;;3725413;38;20650;-54
2020/10/14 09:39:27;;;;;;;;;2.00;2.00;;;;;;;;3725351;38;20640;-55
2020/10/14 09:42:05;;;;;;;;;2.00;2.00;;;;;;;;3725322;38;17727;-55
2020/10/14 09:44:31;;;;;;;;;4.25;2.50;;;;;;;;3725073;38;20632;-54
2020/10/14 09:47:12;;;;;;;;;2.00;2.00;;;;;;;;3725434;38;20629;-55
2020/10/14 09:49:39;;;;;;;;;2.25;2.00;;;;;;;;3725411;37;20624;-55
2020/10/14 09:52:13;;;;;;;;;2.00;1.75;;;;;;;;3725641;38;20635;-55
2020/10/14 09:54:43;;;;;;;;;2.00;1.00;;;;;;;;3725912;37;20614;-56
2020/10/14 09:57:17;;;;;;;;;2.50;2.50;;;;;;;;3725527;38;20634;-54
2020/10/14 09:59:43;;;;;;;;;1.25;1.00;;;;;;;;3725959;37;20628;-55
2020/10/14 10:02:27;;;;;;;;;2.50;1.00;;;;;;;;3725614;38;20604;-55
2020/10/14 10:04:53;;;;;;;;;2.00;2.00;;;;;;;;3725622;38;20608;-55
2020/10/14 10:07:26;;;;;;;;;2.00;1.00;;;;;;;;3725583;37;20614;-54
2020/10/14 10:10:10;;;;;;;;;3.00;2.00;;;;;;;;3725509;37;20600;-54
2020/10/14 10:12:39;;;;;;;;;1.50;1.50;;;;;;;;3725664;38;20629;-53
2020/10/14 10:15:23;;;;;;;;;2.00;2.00;;;;;;;;3725476;37;20599;-57
2020/10/14 10:17:55;;;;;;;;;1.00;1.00;;;;;;;;3725715;37;20608;-55
2020/10/14 10:20:45;;;;;;;;;2.00;2.00;;;;;;;;3725421;38;20579;-53
2020/10/14 10:23:11;;;;;;;;;5.00;2.75;;;;;;;;3725568;37;20581;-53
2020/10/14 10:25:57;;;;;;;;;2.25;2.00;;;;;;;;3725518;38;20588;-55
2020/10/14 10:28:57;;;;;;;;;4.00;2.50;;;;;;;;3725771;37;17694;-54
2020/10/14 10:31:46;;;;;;;;;3.00;3.00;;;;;;;;3725316;38;20621;-54
2020/10/14 10:34:37;;;;;;;;;2.25;2.25;;;;;;;;3725388;38;20593;-54
2020/10/14 10:37:08;;;;;;;;;2.00;2.00;;;;;;;;3725493;37;20546;-55
2020/10/14 10:39:52;;;;;;;;;3.00;2.00;;;;;;;;3725495;38;20576;-54
2020/10/14 10:42:39;;;;;;;;;3.75;3.50;;;;;;;;3725417;37;20569;-54
2020/10/14 10:45:23;;;;;;;;;4.00;3.00;;;;;;;;3725449;37;20580;-54
2020/10/14 10:47:56;;;;;;;;;11.25;4.00;;;;;;;;3725646;37;20624;-54
2020/10/14 10:50:23;;;;;;;;;7.00;3.00;;;;;;;;3725133;37;20611;-54
2020/10/14 10:52:49;;;;;;;;;4.50;3.00;;;;;;;;3725551;37;20559;-53
2020/10/14 10:55:19;;;;;;;;;3.50;3.00;;;;;;;;3725331;38;20527;-54
2020/10/14 10:57:45;;;;;;;;;3.00;2.75;;;;;;;;3725537;38;20513;-56
2020/10/14 11:00:13;;;;;;;;;2.50;2.00;;;;;;;;3725461;37;20529;-57
2020/10/14 11:02:39;;;;;;;;;2.75;2.00;;;;;;;;3725528;37;20520;-54
2020/10/14 11:05:06;;;;;;;;;3.00;2.75;;;;;;;;3725509;38;20517;-54
2020/10/14 11:07:34;;;;;;;;;1.75;1.75;;;;;;;;3725091;37;17597;-55
2020/10/14 11:10:15;;;;;;;;;7.00;2.00;;;;;;;;3725418;37;20521;-54
2020/10/14 11:12:41;;;;;;;;;4.50;4.00;;;;;;;;3725391;37;20505;-58
2020/10/14 11:15:18;;;;;;;;;5.25;3.00;;;;;;;;3725541;37;20506;-57
2020/10/14 11:17:45;;;;;;;;;5.25;3.00;;;;;;;;3725604;37;17565;-53
2020/10/14 11:20:14;;;;;;;;;3.25;2.00;;;;;;;;3725499;37;20510;-54
2020/10/14 11:22:43;;;;;;;;;4.75;3.25;;;;;;;;3725465;37;20499;-54
2020/10/14 11:25:13;;;;;;;;;6.00;3.75;;;;;;;;3725514;38;21483;-54
2020/10/14 11:27:39;;;;;;;;;5.50;3.00;;;;;;;;3724800;37;20484;-53
2020/10/14 11:30:34;;;;;;;;;9.25;5.75;;;;;;;;3725324;38;21489;-53
2020/10/14 11:33:03;;;;;;;;;4.25;3.00;;;;;;;;3725560;37;18564;-54
2020/10/14 11:35:31;;;;;;;;;5.50;2.00;;;;;;;;3725313;37;21324;-54
2020/10/14 11:37:57;;;;;;;;;6.00;3.25;;;;;;;;3725140;37;21305;-54
2020/10/14 11:40:27;;;;;;;;;4.25;3.00;;;;;;;;3725569;38;21542;-54
2020/10/14 11:42:55;;;;;;;;;5.50;3.50;;;;;;;;3725796;38;21467;-55
2020/10/14 11:45:30;;;;;;;;;4.25;3.00;;;;;;;;3725742;37;21492;-54
2020/10/14 11:47:57;;;;;;;;;6.50;3.00;;;;;;;;3725474;38;21480;-54
2020/10/14 11:50:24;;;;;;;;;3.25;2.75;;;;;;;;3725479;38;21467;-53
2020/10/14 11:53:03;;;;;;;;;3.75;3.00;;;;;;;;3725531;38;21473;-54
2020/10/14 11:55:39;;;;;;;;;6.75;3.00;;;;;;;;3725484;37;21485;-55
2020/10/14 11:58:28;;;;;;;;;3.00;2.00;;;;;;;;3725342;38;21433;-54
2020/10/14 12:01:00;;;;;;;;;4.00;3.00;;;;;;;;3725526;38;21454;-55
2020/10/14 12:03:49;;;;;;;;;2.50;2.00;;;;;;;;3725474;37;21433;-54
2020/10/14 12:06:26;;;;;;;;;3.25;2.75;;;;;;;;3725298;38;21576;-54
2020/10/14 12:08:54;;;;;;;;;7.75;3.50;;;;;;;;3725169;38;21448;-54
2020/10/14 12:11:46;;;;;;;;;5.50;3.00;;;;;;;;3725587;37;21274;-54
2020/10/14 12:14:14;;;;;;;;;5.00;3.00;;;;;;;;3725390;38;21453;-54
2020/10/14 12:16:40;;;;;;;;;5.75;3.25;;;;;;;;3725397;38;21460;-53
2020/10/14 12:19:12;;;;;;;;;2.75;2.00;;;;;;;;3725160;37;21443;-53
2020/10/14 12:21:38;;;;;;;;;4.50;3.00;;;;;;;;3725487;37;21428;-54
2020/10/14 12:24:05;;;;;;;;;7.25;4.00;;;;;;;;3725310;37;21420;-56
2020/10/14 12:26:39;;;;;;;;;3.50;3.00;;;;;;;;3725516;37;21431;-55
2020/10/14 12:29:05;;;;;;;;;3.50;2.00;;;;;;;;3725488;38;21413;-54
2020/10/14 12:31:32;;;;;;;;;7.00;3.00;;;;;;;;3726687;38;21435;-55
2020/10/14 12:34:18;;;;;;;;;5.00;2.25;;;;;;;;3727939;37;21425;-55
2020/10/14 12:36:45;;;;;;;;;2.75;2.75;;;;;;;;3729262;38;21260;-55
2020/10/14 12:39:32;;;;;;;;;4.00;2.50;;;;;;;;3730228;38;21256;-59
2020/10/14 12:42:05;;;;;;;;;4.50;2.50;;;;;;;;3726538;37;21422;-54
2020/10/14 12:44:39;;;;;;;;;3.75;2.25;;;;;;;;3724818;37;21418;-55
2020/10/14 12:47:42;;;;;;;;;4.00;3.00;;;;;;;;3725388;37;21403;-54
2020/10/14 12:50:09;;;;;;;;;4.75;4.00;;;;;;;;3725480;38;21229;-54
2020/10/14 12:52:44;;;;;;;;;6.25;5.75;;;;;;;;3725413;37;21406;-54
2020/10/14 12:55:32;;;;;;;;;4.75;3.00;;;;;;;;3725453;37;21381;-54
2020/10/14 12:57:59;;;;;;;;;5.00;2.00;;;;;;;;3725423;38;21395;-54
2020/10/14 13:00:47;;;;;;;;;6.25;3.75;;;;;;;;3725476;37;21373;-56
2020/10/14 13:03:31;;;;;;;;;4.25;3.00;;;;;;;;3725612;38;21387;-60
2020/10/14 13:06:06;;;;;;;;;4.50;2.25;;;;;;;;3725699;37;21370;-55
2020/10/14 13:08:36;;;;;;;;;5.25;4.00;;;;;;;;3725520;37;21375;-56
2020/10/14 13:11:06;;;;;;;;;6.25;5.00;;;;;;;;3725538;37;21353;-57
2020/10/14 13:13:42;;;;;;;;;5.75;3.25;;;;;;;;3725412;37;21353;-56
2020/10/14 13:16:40;;;;;;;;;6.00;4.00;;;;;;;;3725476;37;21367;-56
2020/10/14 13:19:38;;;;;;;;;9.00;3.75;;;;;;;;3725228;37;21376;-55
2020/10/14 13:22:04;;;;;;;;;5.00;4.00;;;;;;;;3725619;38;21371;-56
2020/10/14 13:25:09;;;;;;;;;8.00;6.00;;;;;;;;3725412;38;21358;-55
2020/10/14 13:27:27;;;;;;;;;10.25;6.00;;;;;;;;3725383;38;21309;-55
2020/10/14 13:29:53;;;;;;;;;9.50;4.75;;;;;;;;3725411;37;21343;-55
2020/10/14 13:32:48;;;;;;;;;3.75;2.75;;;;;;;;3725412;37;21341;-54
2020/10/14 13:35:30;;;;;;;;;6.25;3.50;;;;;;;;3725571;38;21174;-55
2020/10/14 13:37:57;;;;;;;;;11.00;4.75;;;;;;;;3725585;37;21344;-55
2020/10/14 13:40:32;;;;;;;;;5.25;3.00;;;;;;;;3725202;38;21354;-55
2020/10/14 13:42:58;;;;;;;;;4.00;4.00;;;;;;;;3725502;38;21312;-56
2020/10/14 13:45:33;;;;;;;;;4.25;3.25;;;;;;;;3725530;37;21199;-55
2020/10/14 13:48:19;;;;;;;;;4.00;3.75;;;;;;;;3725566;37;21309;-54
2020/10/14 13:50:48;;;;;;;;;4.00;3.75;;;;;;;;3725658;38;21325;-54
2020/10/14 13:53:17;;;;;;;;;5.50;3.25;;;;;;;;3725562;38;21292;-54
2020/10/14 13:56:13;;;;;;;;;5.75;3.25;;;;;;;;3725516;38;21314;-55
2020/10/14 14:01:23;;;;;;;;;4.50;4.00;;;;;;;;3725562;37;21251;-55
2020/10/14 14:03:53;;;;;;;;;4.00;3.00;;;;;;;;3725450;38;21303;-55
2020/10/14 14:06:19;;;;;;;;;4.50;3.75;;;;;;;;3725566;37;18393;-54
2020/10/14 14:08:47;;;;;;;;;4.00;3.00;;;;;;;;3725493;38;21287;-57
2020/10/14 14:11:13;;;;;;;;;4.00;4.00;;;;;;;;3725521;37;21288;-55
2020/10/14 14:13:44;;;;;;;;;4.50;4.00;;;;;;;;3724482;37;21270;-53
2020/10/14 14:16:19;;;;;;;;;3.25;3.00;;;;;;;;3725477;37;21294;-54
2020/10/14 14:18:45;;;;;;;;;6.50;4.00;;;;;;;;3725614;37;21270;-53
2020/10/14 14:21:16;;;;;;;;;4.25;3.75;;;;;;;;3725471;38;21264;-53
2020/10/14 14:23:48;;;;;;;;;4.00;3.00;;;;;;;;3725357;38;21098;-54
2020/10/14 14:26:18;;;;;;;;;6.75;4.00;;;;;;;;3725423;37;21263;-57
2020/10/14 14:28:53;;;;;;;;;4.75;4.00;;;;;;;;3725572;37;21273;-53
2020/10/14 14:31:26;;;;;;;;;5.00;5.00;;;;;;;;3725232;37;21273;-54
2020/10/14 14:33:52;;;;;;;;;7.75;5.00;;;;;;;;3725576;38;21239;-54
2020/10/14 14:36:18;;;;;;;;;4.00;3.00;;;;;;;;3725408;38;21248;-53
2020/10/14 14:38:44;;;;;;;;;5.50;4.50;;;;;;;;3725504;37;21252;-54
2020/10/14 14:41:33;;;;;;;;;5.25;5.00;;;;;;;;3725582;37;18326;-53
2020/10/14 14:44:00;;;;;;;;;7.00;5.00;;;;;;;;3725607;38;21244;-54
2020/10/14 14:46:28;;;;;;;;;5.25;4.25;;;;;;;;3725258;38;21234;-54
2020/10/14 14:48:54;;;;;;;;;5.00;4.00;;;;;;;;3725254;37;21137;-53
2020/10/14 14:51:22;;;;;;;;;6.00;5.00;;;;;;;;3725508;37;21234;-54
2020/10/14 14:53:48;;;;;;;;;5.50;4.75;;;;;;;;3725467;38;21225;-54
2020/10/14 14:56:17;;;;;;;;;7.50;5.00;;;;;;;;3725222;37;21228;-54
2020/10/14 14:58:44;;;;;;;;;6.00;5.25;;;;;;;;3725215;38;21220;-55
2020/10/14 15:01:10;;;;;;;;;5.50;3.00;;;;;;;;3725454;38;21214;-54
2020/10/14 15:03:36;;;;;;;;;7.75;5.75;;;;;;;;3725400;38;21206;-54
2020/10/14 15:06:02;;;;;;;;;5.25;5.00;;;;;;;;3725435;37;21224;-55